createdAt,value
2018-09-30T00:02:20.012Z,101703.91
2018-09-30T00:04:49.229Z,101698.24
2018-09-30T00:07:18.484Z,101697.56
2018-09-30T00:09:47.776Z,101690.50
2018-09-30T00:12:19.137Z,101689.17
2018-09-30T00:14:48.329Z,101683.02
2018-09-30T00:17:17.666Z,101677.30
2018-09-30T00:19:47.112Z,101684.86
2018-09-30T00:22:16.317Z,101680.52
2018-09-30T00:24:51.009Z,101680.59
2018-09-30T00:27:21.794Z,101675.34
2018-09-30T00:29:51.029Z,101670.32
2018-09-30T00:32:20.468Z,101673.84
2018-09-30T00:34:50.133Z,101670.95
2018-09-30T00:37:19.331Z,101670.39
2018-09-30T00:39:49.667Z,101666.95
2018-09-30T00:42:18.861Z,101667.81
2018-09-30T00:44:48.069Z,101660.75
2018-09-30T00:47:17.400Z,101655.73
2018-09-30T00:49:46.609Z,101653.91
2018-09-30T00:52:15.830Z,101656.58
2018-09-30T00:54:45.074Z,101662.38
2018-09-30T00:57:14.261Z,101663.02
2018-09-30T00:59:43.525Z,101664.66
2018-09-30T01:02:12.781Z,101661.52
2018-09-30T01:04:42.014Z,101658.38
2018-09-30T01:07:11.292Z,101644.15
2018-09-30T01:09:40.626Z,101644.15
2018-09-30T01:12:10.850Z,101629.09
2018-09-30T01:14:40.069Z,101627.02
2018-09-30T01:17:09.431Z,101621.78
2018-09-30T01:19:39.069Z,101618.72
2018-09-30T01:22:08.369Z,101622.41
2018-09-30T01:24:37.802Z,101624.69
2018-09-30T01:27:07.002Z,101626.48
2018-09-30T01:29:36.221Z,101619.48
2018-09-30T01:32:05.469Z,101622.88
2018-09-30T01:34:36.688Z,101624.28
2018-09-30T01:37:06.686Z,101610.95
2018-09-30T01:39:35.904Z,101610.05
2018-09-30T01:42:05.088Z,101604.64
2018-09-30T01:44:34.802Z,101601.33
2018-09-30T01:47:04.380Z,101592.01
2018-09-30T01:49:34.649Z,101590.20
2018-09-30T01:52:15.141Z,101586.98
2018-09-30T01:54:44.389Z,101586.37
2018-09-30T01:57:13.592Z,101587.55
2018-09-30T01:59:42.786Z,101582.69
2018-09-30T02:02:12.034Z,101575.00
2018-09-30T02:04:41.289Z,101575.86
2018-09-30T02:07:10.569Z,101572.55
2018-09-30T02:09:41.441Z,101570.36
2018-09-30T02:12:10.725Z,101561.41
2018-09-30T02:14:39.921Z,101563.14
2018-09-30T02:17:09.150Z,101566.22
2018-09-30T02:19:38.325Z,101555.55
2018-09-30T02:22:07.509Z,101553.50
2018-09-30T02:24:36.691Z,101547.39
2018-09-30T02:27:05.867Z,101540.81
2018-09-30T02:29:35.145Z,101543.70
2018-09-30T02:32:04.978Z,101537.38
2018-09-30T02:34:34.165Z,101537.77
2018-09-30T02:37:06.995Z,101524.19
2018-09-30T02:39:36.190Z,101520.58
2018-09-30T02:42:05.376Z,101520.83
2018-09-30T02:44:36.073Z,101509.14
2018-09-30T02:47:05.287Z,101510.16
2018-09-30T02:49:34.462Z,101501.44
2018-09-30T02:52:03.789Z,101498.73
2018-09-30T02:54:33.163Z,101498.47
2018-09-30T02:57:02.448Z,101497.01
2018-09-30T02:59:31.664Z,101495.12
2018-09-30T03:02:00.867Z,101486.00
2018-09-30T03:04:30.531Z,101486.34
2018-09-30T03:07:05.303Z,101480.69
2018-09-30T03:09:34.588Z,101476.56
2018-09-30T03:12:04.318Z,101476.94
2018-09-30T03:14:33.570Z,101472.39
2018-09-30T03:17:03.323Z,101471.70
2018-09-30T03:19:32.505Z,101464.18
2018-09-30T03:22:01.803Z,101468.39
2018-09-30T03:24:30.996Z,101464.22
2018-09-30T03:27:00.198Z,101466.66
2018-09-30T03:29:29.806Z,101457.03
2018-09-30T03:31:58.986Z,101448.36
2018-09-30T03:34:28.209Z,101445.84
2018-09-30T03:36:57.441Z,101441.45
2018-09-30T03:39:26.685Z,101431.92
2018-09-30T03:41:55.967Z,101429.81
2018-09-30T03:44:26.330Z,101430.67
2018-09-30T03:46:55.529Z,101428.23
2018-09-30T03:49:24.806Z,101425.64
2018-09-30T03:51:54.868Z,101421.47
2018-09-30T03:54:24.124Z,101423.60
2018-09-30T03:56:53.569Z,101417.91
2018-09-30T03:59:22.763Z,101420.13
2018-09-30T04:01:52.073Z,101419.04
2018-09-30T04:04:22.201Z,101413.44
2018-09-30T04:06:51.374Z,101415.81
2018-09-30T04:09:20.686Z,101415.42
2018-09-30T04:11:50.173Z,101414.30
2018-09-30T04:14:21.921Z,101404.26
2018-09-30T04:16:51.252Z,101407.61
2018-09-30T04:19:20.451Z,101401.03
2018-09-30T04:21:49.655Z,101401.89
2018-09-30T04:24:18.867Z,101407.31
2018-09-30T04:26:48.130Z,101412.08
2018-09-30T04:29:17.806Z,101410.45
2018-09-30T04:31:47.205Z,101402.48
2018-09-30T04:34:16.413Z,101390.27
2018-09-30T04:36:46.477Z,101405.23
2018-09-30T04:39:15.781Z,101398.71
2018-09-30T04:41:44.993Z,101392.42
2018-09-30T04:44:14.209Z,101382.56
2018-09-30T04:46:43.394Z,101386.80
2018-09-30T04:49:12.598Z,101385.85
2018-09-30T04:51:42.349Z,101375.00
2018-09-30T04:54:11.662Z,101375.19
2018-09-30T04:56:40.961Z,101375.77
2018-09-30T04:59:10.189Z,101375.95
2018-09-30T05:01:39.388Z,101374.71
2018-09-30T05:04:08.661Z,101373.67
2018-09-30T05:06:37.869Z,101369.08
2018-09-30T05:09:08.733Z,101364.52
2018-09-30T05:11:38.074Z,101364.05
2018-09-30T05:14:07.508Z,101358.44
2018-09-30T05:16:36.858Z,101357.66
2018-09-30T05:19:06.514Z,101352.91
2018-09-30T05:21:35.728Z,101356.33
2018-09-30T05:24:04.997Z,101351.52
2018-09-30T05:26:34.205Z,101353.28
2018-09-30T05:29:06.313Z,101354.19
2018-09-30T05:31:36.122Z,101347.67
2018-09-30T05:34:07.336Z,101349.48
2018-09-30T05:36:36.532Z,101340.72
2018-09-30T05:39:07.838Z,101341.28
2018-09-30T05:41:37.185Z,101342.42
2018-09-30T05:44:07.559Z,101341.66
2018-09-30T05:46:36.783Z,101342.79
2018-09-30T05:49:06.808Z,101343.74
2018-09-30T05:51:36.041Z,101336.85
2018-09-30T05:54:05.436Z,101338.34
2018-09-30T05:56:34.895Z,101340.15
2018-09-30T05:59:04.146Z,101338.81
2018-09-30T06:01:33.552Z,101331.77
2018-09-30T06:04:04.958Z,101326.05
2018-09-30T06:06:34.093Z,101326.61
2018-09-30T06:09:03.708Z,101330.91
2018-09-30T06:11:32.898Z,101323.86
2018-09-30T06:14:03.958Z,101327.77
2018-09-30T06:16:33.367Z,101327.00
2018-09-30T06:19:03.993Z,101330.28
2018-09-30T06:21:33.177Z,101338.09
2018-09-30T06:24:02.502Z,101333.76
2018-09-30T06:26:31.706Z,101336.95
2018-09-30T06:29:00.930Z,101338.14
2018-09-30T06:31:30.220Z,101330.94
2018-09-30T06:33:59.474Z,101329.52
2018-09-30T06:36:29.757Z,101328.05
2018-09-30T06:38:58.983Z,101326.05
2018-09-30T06:41:28.223Z,101332.54
2018-09-30T06:43:57.478Z,101327.42
2018-09-30T06:46:26.660Z,101331.02
2018-09-30T06:48:56.689Z,101328.16
2018-09-30T06:51:25.893Z,101321.39
2018-09-30T06:53:55.070Z,101325.39
2018-09-30T06:56:24.273Z,101315.80
2018-09-30T06:58:53.489Z,101318.66
2018-09-30T07:01:22.698Z,101319.06
2018-09-30T07:03:51.925Z,101317.91
2018-09-30T07:06:21.150Z,101317.66
2018-09-30T07:08:50.385Z,101319.17
2018-09-30T07:11:19.593Z,101320.81
2018-09-30T07:13:48.792Z,101316.42
2018-09-30T07:16:17.985Z,101324.16
2018-09-30T07:18:47.447Z,101313.97
2018-09-30T07:21:16.693Z,101313.12
2018-09-30T07:23:45.919Z,101315.67
2018-09-30T07:26:15.267Z,101306.50
2018-09-30T07:28:44.464Z,101309.67
2018-09-30T07:31:13.644Z,101308.04
2018-09-30T07:33:43.088Z,101306.12
2018-09-30T07:36:12.930Z,101305.96
2018-09-30T07:38:42.158Z,101304.98
2018-09-30T07:41:11.473Z,101300.51
2018-09-30T07:43:40.705Z,101301.84
2018-09-30T07:46:09.921Z,101302.70
2018-09-30T07:48:39.386Z,101298.13
2018-09-30T07:51:08.594Z,101300.42
2018-09-30T07:53:37.806Z,101304.98
2018-09-30T07:56:07.320Z,101299.64
2018-09-30T07:58:36.734Z,101307.75
2018-09-30T08:01:05.939Z,101295.35
2018-09-30T08:03:35.234Z,101304.13
2018-09-30T08:06:04.445Z,101306.31
2018-09-30T08:08:33.703Z,101317.77
2018-09-30T08:11:04.380Z,101312.80
2018-09-30T08:13:33.617Z,101315.09
2018-09-30T08:16:02.909Z,101314.23
2018-09-30T08:18:33.859Z,101309.92
2018-09-30T08:21:03.143Z,101308.95
2018-09-30T08:23:32.365Z,101302.27
2018-09-30T08:26:02.425Z,101303.12
2018-09-30T08:28:31.827Z,101308.25
2018-09-30T08:31:01.021Z,101305.84
2018-09-30T08:33:30.562Z,101298.00
2018-09-30T08:36:05.247Z,101292.76
2018-09-30T08:38:35.611Z,101291.91
2018-09-30T08:41:06.209Z,101288.41
2018-09-30T08:43:36.691Z,101284.80
2018-09-30T08:46:06.371Z,101278.69
2018-09-30T08:48:35.689Z,101287.33
2018-09-30T08:51:04.922Z,101281.91
2018-09-30T08:53:34.090Z,101273.42
2018-09-30T08:56:03.410Z,101267.70
2018-09-30T08:58:32.593Z,101267.22
2018-09-30T09:01:01.787Z,101260.64
2018-09-30T09:03:31.199Z,101248.42
2018-09-30T09:06:00.469Z,101250.82
2018-09-30T09:08:29.733Z,101248.58
2018-09-30T09:10:59.104Z,101243.55
2018-09-30T09:13:28.983Z,101240.53
2018-09-30T09:15:58.249Z,101240.86
2018-09-30T09:18:27.498Z,101223.22
2018-09-30T09:20:56.711Z,101216.80
2018-09-30T09:23:27.004Z,101222.48
2018-09-30T09:25:56.362Z,101207.39
2018-09-30T09:28:28.720Z,101203.80
2018-09-30T09:30:58.155Z,101201.84
2018-09-30T09:33:27.373Z,101202.34
2018-09-30T09:35:56.602Z,101198.32
2018-09-30T09:38:25.898Z,101192.44
2018-09-30T09:40:55.085Z,101195.22
2018-09-30T09:43:24.341Z,101183.13
2018-09-30T09:45:55.282Z,101186.37
2018-09-30T09:48:24.505Z,101181.68
2018-09-30T09:50:53.784Z,101179.60
2018-09-30T09:53:23.939Z,101167.72
2018-09-30T09:55:53.129Z,101169.37
2018-09-30T09:58:23.529Z,101162.19
2018-09-30T10:00:52.723Z,101167.74
2018-09-30T10:03:21.884Z,101162.19
2018-09-30T10:05:51.166Z,101164.85
2018-09-30T10:08:20.413Z,101152.81
2018-09-30T10:10:49.571Z,101153.43
2018-09-30T10:13:22.436Z,101142.67
2018-09-30T10:15:51.522Z,101138.72
2018-09-30T10:18:20.809Z,101138.63
2018-09-30T10:20:50.033Z,101138.91
2018-09-30T10:23:19.215Z,101135.38
2018-09-30T10:25:48.399Z,101126.88
2018-09-30T10:28:17.633Z,101131.73
2018-09-30T10:30:46.926Z,101134.94
2018-09-30T10:33:16.411Z,101140.98
2018-09-30T10:35:45.624Z,101128.16
2018-09-30T10:38:14.974Z,101122.03
2018-09-30T10:40:44.142Z,101138.42
2018-09-30T10:43:13.355Z,101125.89
2018-09-30T10:45:42.993Z,101131.16
2018-09-30T10:48:12.235Z,101125.91
2018-09-30T10:50:41.401Z,101125.84
2018-09-30T10:53:10.723Z,101125.56
2018-09-30T10:55:39.898Z,101119.33
2018-09-30T10:58:09.116Z,101121.19
2018-09-30T11:00:38.316Z,101116.39
2018-09-30T11:03:07.477Z,101114.33
2018-09-30T11:05:36.645Z,101118.95
2018-09-30T11:08:06.024Z,101112.99
2018-09-30T11:10:35.289Z,101113.55
2018-09-30T11:13:04.489Z,101117.02
2018-09-30T11:15:33.802Z,101106.88
2018-09-30T11:18:03.104Z,101107.86
2018-09-30T11:20:32.317Z,101100.00
2018-09-30T11:23:01.554Z,101098.17
2018-09-30T11:25:30.778Z,101080.98
2018-09-30T11:27:59.981Z,101077.73
2018-09-30T11:30:30.308Z,101074.64
2018-09-30T11:32:59.477Z,101068.03
2018-09-30T11:35:28.727Z,101067.94
2018-09-30T11:37:58.033Z,101066.11
2018-09-30T11:40:27.259Z,101070.56
2018-09-30T11:42:56.493Z,101067.28
2018-09-30T11:45:25.949Z,101059.14
2018-09-30T11:47:55.169Z,101069.11
2018-09-30T11:50:24.421Z,101068.80
2018-09-30T11:52:53.677Z,101068.05
2018-09-30T11:55:22.881Z,101063.30
2018-09-30T11:57:54.250Z,101059.09
2018-09-30T12:00:23.491Z,101065.09
2018-09-30T12:02:52.740Z,101063.28
2018-09-30T12:05:24.952Z,101059.81
2018-09-30T12:07:54.156Z,101063.52
2018-09-30T12:10:24.587Z,101055.59
2018-09-30T12:12:53.907Z,101060.06
2018-09-30T12:15:23.086Z,101060.11
2018-09-30T12:17:52.270Z,101052.56
2018-09-30T12:20:21.592Z,101048.20
2018-09-30T12:22:51.894Z,101053.50
2018-09-30T12:25:21.114Z,101044.33
2018-09-30T12:27:50.442Z,101035.45
2018-09-30T12:30:21.144Z,101040.20
2018-09-30T12:32:51.558Z,101032.59
2018-09-30T12:35:23.775Z,101044.80
2018-09-30T12:37:54.291Z,101037.06
2018-09-30T12:40:23.909Z,101037.16
2018-09-30T12:42:55.054Z,101023.03
2018-09-30T12:45:24.879Z,101032.87
2018-09-30T12:47:54.702Z,101030.37
2018-09-30T12:50:27.170Z,101028.99
2018-09-30T12:52:56.375Z,101018.05
2018-09-30T12:55:25.746Z,101016.24
2018-09-30T12:57:55.034Z,101006.66
2018-09-30T13:00:24.341Z,101007.13
2018-09-30T13:02:53.598Z,101007.56
2018-09-30T13:05:23.102Z,101013.95
2018-09-30T13:07:53.376Z,101006.33
2018-09-30T13:10:24.133Z,101006.24
2018-09-30T13:13:01.162Z,101010.39
2018-09-30T13:15:32.142Z,101003.05
2018-09-30T13:18:02.008Z,100991.97
2018-09-30T13:20:31.774Z,101002.69
2018-09-30T13:23:05.307Z,100998.88
2018-09-30T13:25:34.692Z,100998.05
2018-09-30T13:28:04.426Z,100996.64
2018-09-30T13:30:34.203Z,100997.06
2018-09-30T13:33:03.760Z,100996.39
2018-09-30T13:35:33.635Z,100995.67
2018-09-30T13:38:04.152Z,100995.44
2018-09-30T13:40:33.604Z,100985.52
2018-09-30T13:43:03.098Z,100988.81
2018-09-30T13:45:32.818Z,100988.66
2018-09-30T13:48:02.720Z,100990.27
2018-09-30T13:50:32.532Z,100991.66
2018-09-30T13:53:02.266Z,100995.78
2018-09-30T13:55:32.155Z,100993.10
2018-09-30T13:58:01.607Z,100998.69
2018-09-30T14:00:31.730Z,100998.84
2018-09-30T14:03:02.020Z,100991.95
2018-09-30T14:05:31.390Z,101000.29
2018-09-30T14:08:00.829Z,100991.55
2018-09-30T14:10:30.725Z,100988.91
2018-09-30T14:13:01.227Z,100992.69
2018-09-30T14:15:30.790Z,100994.66
2018-09-30T14:18:00.334Z,100986.00
2018-09-30T14:20:30.222Z,100995.74
2018-09-30T14:23:00.204Z,100998.27
2018-09-30T14:25:30.392Z,101002.23
2018-09-30T14:27:59.782Z,100997.81
2018-09-30T14:30:29.125Z,100994.77
2018-09-30T14:32:58.446Z,100997.75
2018-09-30T14:35:27.804Z,101002.30
2018-09-30T14:37:57.443Z,101000.88
2018-09-30T14:40:27.237Z,100996.89
2018-09-30T14:42:56.894Z,100992.59
2018-09-30T14:45:26.667Z,100997.60
2018-09-30T14:47:55.838Z,100996.84
2018-09-30T14:50:25.429Z,100989.84
2018-09-30T14:52:56.257Z,100987.50
2018-09-30T14:55:25.479Z,100982.59
2018-09-30T14:57:54.705Z,100973.62
2018-09-30T15:00:24.093Z,100980.19
2018-09-30T15:02:53.328Z,100981.53
2018-09-30T15:05:24.538Z,100974.09
2018-09-30T15:07:53.757Z,100985.13
2018-09-30T15:10:23.037Z,100979.05
2018-09-30T15:12:52.233Z,100970.84
2018-09-30T15:15:21.434Z,100975.23
2018-09-30T15:17:50.737Z,100964.31
2018-09-30T15:20:19.938Z,100965.14
2018-09-30T15:22:50.943Z,100969.12
2018-09-30T15:25:20.170Z,100961.80
2018-09-30T15:27:49.358Z,100959.32
2018-09-30T15:30:18.648Z,100963.00
2018-09-30T15:32:47.847Z,100963.36
2018-09-30T15:35:17.691Z,100962.37
2018-09-30T15:37:46.920Z,100961.09
2018-09-30T15:40:16.160Z,100958.30
2018-09-30T15:42:45.460Z,100957.55
2018-09-30T15:45:14.617Z,100956.06
2018-09-30T15:47:43.785Z,100959.85
2018-09-30T15:50:15.106Z,100956.70
2018-09-30T15:52:44.341Z,100954.11
2018-09-30T15:55:13.545Z,100957.97
2018-09-30T15:57:42.773Z,100954.72
2018-09-30T16:00:11.977Z,100953.47
2018-09-30T16:02:41.393Z,100943.16
2018-09-30T16:05:10.736Z,100946.74
2018-09-30T16:07:40.019Z,100945.95
2018-09-30T16:10:09.226Z,100946.13
2018-09-30T16:12:38.477Z,100947.42
2018-09-30T16:15:07.831Z,100942.42
2018-09-30T16:17:37.026Z,100941.95
2018-09-30T16:20:06.446Z,100946.91
2018-09-30T16:22:35.711Z,100938.36
2018-09-30T16:25:04.940Z,100940.75
2018-09-30T16:27:35.119Z,100938.80
2018-09-30T16:30:05.234Z,100951.17
2018-09-30T16:32:34.485Z,100944.73
2018-09-30T16:35:04.502Z,100940.84
2018-09-30T16:37:33.653Z,100938.56
2018-09-30T16:40:02.912Z,100943.53
2018-09-30T16:42:32.128Z,100944.39
2018-09-30T16:45:01.677Z,100949.42
2018-09-30T16:47:30.886Z,100933.42
2018-09-30T16:50:00.101Z,100929.89
2018-09-30T16:52:29.314Z,100936.25
2018-09-30T16:54:58.631Z,100943.20
2018-09-30T16:57:27.868Z,100932.48
2018-09-30T16:59:57.035Z,100945.17
2018-09-30T17:02:26.291Z,100944.73
2018-09-30T17:04:55.495Z,100942.13
2018-09-30T17:07:24.714Z,100934.55
2018-09-30T17:09:54.992Z,100947.01
2018-09-30T17:12:24.220Z,100942.26
2018-09-30T17:14:53.421Z,100941.19
2018-09-30T17:17:22.687Z,100939.72
2018-09-30T17:19:52.101Z,100935.33
2018-09-30T17:22:21.401Z,100939.98
2018-09-30T17:27:25.845Z,100949.25
2018-09-30T17:29:55.094Z,100942.03
2018-09-30T17:32:24.305Z,100946.56
2018-09-30T17:34:54.731Z,100942.17
2018-09-30T17:37:24.606Z,100951.66
2018-09-30T17:39:54.301Z,100942.82
2018-09-30T17:42:23.568Z,100950.81
2018-09-30T17:44:52.818Z,100948.84
2018-09-30T17:47:22.118Z,100949.61
2018-09-30T17:49:51.333Z,100951.45
2018-09-30T17:52:21.381Z,100954.06
2018-09-30T17:54:50.637Z,100957.73
2018-09-30T17:57:19.866Z,100959.57
2018-09-30T17:59:49.088Z,100955.33
2018-09-30T18:02:18.322Z,100964.51
2018-09-30T18:04:47.504Z,100964.38
2018-09-30T18:07:16.751Z,100959.54
2018-09-30T18:09:48.065Z,100953.81
2018-09-30T18:12:17.410Z,100951.27
2018-09-30T18:14:46.647Z,100948.08
2018-09-30T18:17:15.960Z,100948.70
2018-09-30T18:19:45.273Z,100946.91
2018-09-30T18:22:14.561Z,100938.72
2018-09-30T18:24:44.771Z,100941.89
2018-09-30T18:27:14.256Z,100938.59
2018-09-30T18:29:43.531Z,100941.89
2018-09-30T18:32:12.795Z,100935.54
2018-09-30T18:34:42.120Z,100935.41
2018-09-30T18:37:11.710Z,100931.64
2018-09-30T18:39:41.004Z,100927.97
2018-09-30T18:42:10.342Z,100924.80
2018-09-30T18:44:39.575Z,100917.95
2018-09-30T18:47:08.880Z,100914.90
2018-09-30T18:49:39.262Z,100921.62
2018-09-30T18:52:08.829Z,100921.25
2018-09-30T18:54:38.085Z,100919.41
2018-09-30T18:57:07.433Z,100920.13
2018-09-30T18:59:36.745Z,100920.98
2018-09-30T19:02:06.208Z,100928.81
2018-09-30T19:04:35.615Z,100927.61
2018-09-30T19:07:05.142Z,100926.27
2018-09-30T19:09:35.874Z,100921.25
2018-09-30T19:12:05.335Z,100923.22
2018-09-30T19:14:35.439Z,100921.13
2018-09-30T19:17:05.214Z,100916.28
2018-09-30T19:19:35.386Z,100923.00
2018-09-30T19:22:05.308Z,100918.02
2018-09-30T19:24:35.511Z,100909.99
2018-09-30T19:27:04.941Z,100910.22
2018-09-30T19:29:34.949Z,100911.56
2018-09-30T19:32:04.707Z,100906.52
2018-09-30T19:34:34.448Z,100915.33
2018-09-30T19:37:04.258Z,100910.32
2018-09-30T19:39:33.721Z,100912.42
2018-09-30T19:42:03.410Z,100907.28
2018-09-30T19:44:33.125Z,100905.24
2018-09-30T19:47:03.096Z,100906.09
2018-09-30T19:49:33.153Z,100907.17
2018-09-30T19:52:03.092Z,100902.42
2018-09-30T19:54:34.426Z,100906.94
2018-09-30T19:57:03.622Z,100902.89
2018-09-30T19:59:32.848Z,100901.58
2018-09-30T20:02:02.939Z,100902.53
2018-09-30T20:05:37.323Z,100904.95
2018-09-30T20:08:06.751Z,100907.46
2018-09-30T20:10:36.015Z,100902.70
2018-09-30T20:13:05.200Z,100903.92
2018-09-30T20:15:36.033Z,100901.37
2018-09-30T20:18:05.214Z,100907.97
2018-09-30T20:20:34.427Z,100901.48
2018-09-30T20:23:03.852Z,100898.33
2018-09-30T20:25:33.098Z,100895.58
2018-09-30T20:28:02.406Z,100899.23
2018-09-30T20:30:31.638Z,100893.48
2018-09-30T20:33:00.873Z,100888.48
2018-09-30T20:35:30.156Z,100894.07
2018-09-30T20:38:00.222Z,100891.03
2018-09-30T20:40:29.992Z,100894.07
2018-09-30T20:42:59.265Z,100887.01
2018-09-30T20:45:28.609Z,100885.03
2018-09-30T20:47:57.838Z,100883.32
2018-09-30T20:50:27.097Z,100879.64
2018-09-30T20:52:56.336Z,100878.78
2018-09-30T20:55:25.563Z,100870.14
2018-09-30T20:57:55.335Z,100869.86
2018-09-30T21:00:25.674Z,100874.34
2018-09-30T21:02:55.205Z,100863.03
2018-09-30T21:05:41.291Z,100870.75
2018-09-30T21:08:10.485Z,100869.46
2018-09-30T21:10:39.916Z,100864.14
2018-09-30T21:13:09.035Z,100861.59
2018-09-30T21:15:38.318Z,100868.20
2018-09-30T21:18:07.601Z,100864.66
2018-09-30T21:20:36.834Z,100858.09
2018-09-30T21:23:06.142Z,100858.58
2018-09-30T21:25:35.401Z,100851.39
2018-09-30T21:28:04.617Z,100845.70
2018-09-30T21:30:33.859Z,100841.53
2018-09-30T21:33:03.086Z,100846.37
2018-09-30T21:35:33.061Z,100847.86
2018-09-30T21:38:02.245Z,100846.40
2018-09-30T21:40:31.491Z,100853.37
2018-09-30T21:43:00.701Z,100850.08
2018-09-30T21:45:29.888Z,100851.66
2018-09-30T21:47:59.225Z,100852.85
2018-09-30T21:50:28.449Z,100855.62
2018-09-30T21:52:57.734Z,100855.05
2018-09-30T21:55:26.978Z,100856.08
2018-09-30T21:57:56.201Z,100852.62
2018-09-30T22:00:30.885Z,100856.92
2018-09-30T22:03:00.080Z,100846.73
2018-09-30T22:05:29.405Z,100847.55
2018-09-30T22:07:59.183Z,100841.95
2018-09-30T22:10:28.347Z,100835.87
2018-09-30T22:12:57.691Z,100832.73
2018-09-30T22:15:27.108Z,100839.92
2018-09-30T22:17:56.591Z,100834.80
2018-09-30T22:20:25.839Z,100841.98
2018-09-30T22:22:55.091Z,100839.95
2018-09-30T22:25:24.393Z,100841.86
2018-09-30T22:27:53.595Z,100842.62
2018-09-30T22:30:23.934Z,100834.44
2018-09-30T22:32:53.198Z,100846.41
2018-09-30T22:35:22.425Z,100843.17
2018-09-30T22:37:52.261Z,100818.34
2018-09-30T22:40:21.562Z,100823.36
2018-09-30T22:42:51.227Z,100815.42
2018-09-30T22:45:21.345Z,100815.17
2018-09-30T22:47:50.552Z,100809.30
2018-09-30T22:50:19.845Z,100812.86
2018-09-30T22:52:49.205Z,100811.86
2018-09-30T22:55:18.524Z,100813.41
2018-09-30T22:57:48.874Z,100806.17
2018-09-30T23:00:18.110Z,100806.53
2018-09-30T23:02:47.473Z,100803.16
2018-09-30T23:05:16.711Z,100806.20
2018-09-30T23:07:45.909Z,100803.16
2018-09-30T23:10:15.298Z,100801.05
2018-09-30T23:12:44.453Z,100791.20
2018-09-30T23:15:13.651Z,100798.74
2018-09-30T23:17:42.953Z,100789.47
2018-09-30T23:20:16.966Z,100784.72
2018-09-30T23:22:46.976Z,100794.70
2018-09-30T23:25:16.209Z,100790.22
2018-09-30T23:27:45.418Z,100787.91
2018-09-30T23:30:14.669Z,100791.56
2018-09-30T23:32:43.825Z,100789.34
2018-09-30T23:35:13.093Z,100790.13
2018-09-30T23:37:42.383Z,100786.96
2018-09-30T23:40:11.584Z,100790.24
2018-09-30T23:42:40.885Z,100789.34
2018-09-30T23:45:10.080Z,100797.41
2018-09-30T23:47:39.346Z,100802.41
2018-09-30T23:50:08.802Z,100802.08
2018-09-30T23:52:37.975Z,100795.19
2018-09-30T23:55:07.586Z,100793.84
2018-09-30T23:57:36.889Z,100791.98
